sensor_id;sensor_type;location;lat;lon;timestamp;P1;durP1;ratioP1;P2;durP2;ratioP2
47365;SDS011;33105;47.964;7.982;2023-06-01T00:02:03;6.68;;;3.35;;
47365;SDS011;33105;47.964;7.982;2023-06-01T00:05:05;6.80;;;3.58;;
47365;SDS011;33105;47.964;7.982;2023-06-01T00:08:07;5.38;;;3.67;;
47365;SDS011;33105;47.964;7.982;2023-06-01T00:11:08;8.80;;;3.75;;
47365;SDS011;33105;47.964;7.982;2023-06-01T00:14:10;10.38;;;3.05;;
47365;SDS011;33105;47.964;7.982;2023-06-01T00:17:12;6.80;;;3.75;;
47365;SDS011;33105;47.964;7.982;2023-06-01T00:20:13;6.20;;;3.40;;
47365;SDS011;33105;47.964;7.982;2023-06-01T00:23:14;5.57;;;3.45;;
47365;SDS011;33105;47.964;7.982;2023-06-01T00:26:16;8.65;;;3.80;;
47365;SDS011;33105;47.964;7.982;2023-06-01T00:29:23;15.18;;;4.25;;
47365;SDS011;33105;47.964;7.982;2023-06-01T00:32:24;7.32;;;3.92;;
47365;SDS011;33105;47.964;7.982;2023-06-01T00:35:26;9.95;;;4.38;;
47365;SDS011;33105;47.964;7.982;2023-06-01T00:38:27;7.85;;;3.97;;
47365;SDS011;33105;47.964;7.982;2023-06-01T00:41:29;9.77;;;4.22;;
47365;SDS011;33105;47.964;7.982;2023-06-01T00:44:31;10.23;;;3.72;;
47365;SDS011;33105;47.964;7.982;2023-06-01T00:47:33;7.90;;;3.90;;
47365;SDS011;33105;47.964;7.982;2023-06-01T00:53:43;5.35;;;3.65;;
47365;SDS011;33105;47.964;7.982;2023-06-01T00:56:45;7.45;;;3.55;;
47365;SDS011;33105;47.964;7.982;2023-06-01T00:59:47;8.90;;;3.58;;
47365;SDS011;33105;47.964;7.982;2023-06-01T01:02:48;5.93;;;3.45;;
47365;SDS011;33105;47.964;7.982;2023-06-01T01:05:50;6.70;;;3.60;;
47365;SDS011;33105;47.964;7.982;2023-06-01T01:09:13;10.43;;;3.60;;
47365;SDS011;33105;47.964;7.982;2023-06-01T01:12:26;8.30;;;3.90;;
47365;SDS011;33105;47.964;7.982;2023-06-01T01:25:52;6.72;;;4.18;;
47365;SDS011;33105;47.964;7.982;2023-06-01T01:29:23;9.18;;;4.65;;
47365;SDS011;33105;47.964;7.982;2023-06-01T01:32:26;9.30;;;4.15;;
47365;SDS011;33105;47.964;7.982;2023-06-01T01:35:28;9.00;;;4.22;;
47365;SDS011;33105;47.964;7.982;2023-06-01T01:38:35;9.63;;;4.57;;
47365;SDS011;33105;47.964;7.982;2023-06-01T01:41:37;8.90;;;4.18;;
47365;SDS011;33105;47.964;7.982;2023-06-01T01:44:39;7.72;;;3.78;;
47365;SDS011;33105;47.964;7.982;2023-06-01T01:47:49;9.25;;;4.63;;
47365;SDS011;33105;47.964;7.982;2023-06-01T01:51:11;13.10;;;4.50;;
47365;SDS011;33105;47.964;7.982;2023-06-01T01:54:17;6.90;;;4.32;;
47365;SDS011;33105;47.964;7.982;2023-06-01T01:57:20;9.05;;;4.32;;
47365;SDS011;33105;47.964;7.982;2023-06-01T02:00:24;7.65;;;3.83;;
47365;SDS011;33105;47.964;7.982;2023-06-01T02:03:26;8.07;;;3.92;;
47365;SDS011;33105;47.964;7.982;2023-06-01T02:06:27;8.95;;;4.03;;
47365;SDS011;33105;47.964;7.982;2023-06-01T02:09:28;9.40;;;4.63;;
47365;SDS011;33105;47.964;7.982;2023-06-01T02:12:30;7.93;;;4.47;;
47365;SDS011;33105;47.964;7.982;2023-06-01T02:15:31;8.07;;;4.53;;
47365;SDS011;33105;47.964;7.982;2023-06-01T02:18:33;8.80;;;4.35;;
47365;SDS011;33105;47.964;7.982;2023-06-01T02:21:34;8.50;;;5.18;;
47365;SDS011;33105;47.964;7.982;2023-06-01T02:24:36;8.77;;;4.53;;
47365;SDS011;33105;47.964;7.982;2023-06-01T02:27:38;7.05;;;4.32;;
47365;SDS011;33105;47.964;7.982;2023-06-01T02:30:39;7.90;;;4.90;;
47365;SDS011;33105;47.964;7.982;2023-06-01T02:33:40;14.10;;;5.55;;
47365;SDS011;33105;47.964;7.982;2023-06-01T02:36:42;6.68;;;4.28;;
47365;SDS011;33105;47.964;7.982;2023-06-01T02:39:44;7.28;;;4.55;;
47365;SDS011;33105;47.964;7.982;2023-06-01T02:42:46;8.25;;;4.05;;
47365;SDS011;33105;47.964;7.982;2023-06-01T02:45:48;7.90;;;4.35;;
47365;SDS011;33105;47.964;7.982;2023-06-01T02:48:49;5.82;;;4.07;;
47365;SDS011;33105;47.964;7.982;2023-06-01T02:51:52;7.57;;;4.32;;
47365;SDS011;33105;47.964;7.982;2023-06-01T02:54:55;8.18;;;4.38;;
47365;SDS011;33105;47.964;7.982;2023-06-01T02:58:17;10.80;;;4.60;;
47365;SDS011;33105;47.964;7.982;2023-06-01T03:01:32;7.80;;;4.97;;
47365;SDS011;33105;47.964;7.982;2023-06-01T03:04:38;10.15;;;4.90;;
47365;SDS011;33105;47.964;7.982;2023-06-01T03:07:40;9.45;;;4.80;;
47365;SDS011;33105;47.964;7.982;2023-06-01T03:10:47;9.50;;;4.72;;
47365;SDS011;33105;47.964;7.982;2023-06-01T03:13:54;11.85;;;4.88;;
47365;SDS011;33105;47.964;7.982;2023-06-01T03:16:57;7.15;;;4.35;;
47365;SDS011;33105;47.964;7.982;2023-06-01T03:19:59;11.90;;;4.30;;
47365;SDS011;33105;47.964;7.982;2023-06-01T03:23:01;9.18;;;4.90;;
47365;SDS011;33105;47.964;7.982;2023-06-01T03:26:02;14.60;;;5.10;;
47365;SDS011;33105;47.964;7.982;2023-06-01T03:29:05;11.32;;;4.50;;
47365;SDS011;33105;47.964;7.982;2023-06-01T03:32:08;9.13;;;4.80;;
47365;SDS011;33105;47.964;7.982;2023-06-01T03:35:10;6.65;;;4.55;;
47365;SDS011;33105;47.964;7.982;2023-06-01T03:38:12;10.45;;;4.55;;
47365;SDS011;33105;47.964;7.982;2023-06-01T03:41:13;8.88;;;4.70;;
47365;SDS011;33105;47.964;7.982;2023-06-01T03:44:15;9.80;;;4.20;;
47365;SDS011;33105;47.964;7.982;2023-06-01T03:47:17;8.48;;;4.57;;
47365;SDS011;33105;47.964;7.982;2023-06-01T03:50:18;8.23;;;4.70;;
47365;SDS011;33105;47.964;7.982;2023-06-01T03:53:20;7.88;;;4.70;;
47365;SDS011;33105;47.964;7.982;2023-06-01T03:56:21;7.35;;;4.50;;
47365;SDS011;33105;47.964;7.982;2023-06-01T03:59:25;10.13;;;4.57;;
47365;SDS011;33105;47.964;7.982;2023-06-01T04:02:26;8.48;;;4.53;;
47365;SDS011;33105;47.964;7.982;2023-06-01T04:05:27;9.20;;;5.18;;
47365;SDS011;33105;47.964;7.982;2023-06-01T04:08:29;10.18;;;4.90;;
47365;SDS011;33105;47.964;7.982;2023-06-01T04:11:31;13.85;;;4.88;;
47365;SDS011;33105;47.964;7.982;2023-06-01T04:14:32;10.52;;;5.43;;
47365;SDS011;33105;47.964;7.982;2023-06-01T04:17:36;10.77;;;5.15;;
47365;SDS011;33105;47.964;7.982;2023-06-01T04:20:38;11.45;;;5.03;;
47365;SDS011;33105;47.964;7.982;2023-06-01T04:23:40;10.30;;;4.97;;
47365;SDS011;33105;47.964;7.982;2023-06-01T04:26:44;8.52;;;5.03;;
47365;SDS011;33105;47.964;7.982;2023-06-01T04:29:46;8.95;;;4.93;;
47365;SDS011;33105;47.964;7.982;2023-06-01T04:32:49;9.27;;;4.82;;
47365;SDS011;33105;47.964;7.982;2023-06-01T04:35:51;8.30;;;5.10;;
47365;SDS011;33105;47.964;7.982;2023-06-01T04:38:56;9.85;;;4.95;;
47365;SDS011;33105;47.964;7.982;2023-06-01T04:41:58;7.65;;;4.90;;
47365;SDS011;33105;47.964;7.982;2023-06-01T04:45:00;9.00;;;4.15;;
47365;SDS011;33105;47.964;7.982;2023-06-01T04:48:05;11.65;;;5.00;;
47365;SDS011;33105;47.964;7.982;2023-06-01T04:51:44;8.30;;;4.38;;
47365;SDS011;33105;47.964;7.982;2023-06-01T04:54:46;9.68;;;4.78;;
47365;SDS011;33105;47.964;7.982;2023-06-01T04:57:47;9.98;;;4.85;;
47365;SDS011;33105;47.964;7.982;2023-06-01T05:00:49;9.40;;;4.80;;
47365;SDS011;33105;47.964;7.982;2023-06-01T05:03:51;10.40;;;4.90;;
47365;SDS011;33105;47.964;7.982;2023-06-01T05:06:56;8.73;;;4.55;;
47365;SDS011;33105;47.964;7.982;2023-06-01T05:09:58;11.20;;;5.13;;
47365;SDS011;33105;47.964;7.982;2023-06-01T05:13:05;15.20;;;5.05;;
47365;SDS011;33105;47.964;7.982;2023-06-01T05:16:07;9.65;;;4.65;;
47365;SDS011;33105;47.964;7.982;2023-06-01T05:19:09;9.52;;;4.57;;
47365;SDS011;33105;47.964;7.982;2023-06-01T05:22:11;10.27;;;4.95;;
47365;SDS011;33105;47.964;7.982;2023-06-01T05:25:13;8.57;;;4.97;;
47365;SDS011;33105;47.964;7.982;2023-06-01T05:28:15;8.45;;;4.75;;
47365;SDS011;33105;47.964;7.982;2023-06-01T05:31:16;10.50;;;4.20;;
47365;SDS011;33105;47.964;7.982;2023-06-01T05:34:22;7.82;;;4.68;;
47365;SDS011;33105;47.964;7.982;2023-06-01T05:37:24;9.60;;;4.60;;
47365;SDS011;33105;47.964;7.982;2023-06-01T05:40:25;10.00;;;5.03;;
47365;SDS011;33105;47.964;7.982;2023-06-01T05:43:26;11.10;;;4.80;;
47365;SDS011;33105;47.964;7.982;2023-06-01T05:46:28;9.68;;;4.80;;
47365;SDS011;33105;47.964;7.982;2023-06-01T05:49:30;8.27;;;4.70;;
47365;SDS011;33105;47.964;7.982;2023-06-01T05:52:32;10.38;;;4.68;;
47365;SDS011;33105;47.964;7.982;2023-06-01T05:55:35;10.65;;;4.40;;
47365;SDS011;33105;47.964;7.982;2023-06-01T05:58:36;8.38;;;4.68;;
47365;SDS011;33105;47.964;7.982;2023-06-01T06:01:37;17.17;;;5.40;;
47365;SDS011;33105;47.964;7.982;2023-06-01T06:04:39;9.73;;;4.68;;
47365;SDS011;33105;47.964;7.982;2023-06-01T06:07:40;7.75;;;4.88;;
47365;SDS011;33105;47.964;7.982;2023-06-01T06:10:42;10.30;;;5.30;;
47365;SDS011;33105;47.964;7.982;2023-06-01T06:13:43;7.45;;;5.07;;
47365;SDS011;33105;47.964;7.982;2023-06-01T06:16:44;13.27;;;5.10;;
47365;SDS011;33105;47.964;7.982;2023-06-01T06:19:45;9.70;;;4.80;;
47365;SDS011;33105;47.964;7.982;2023-06-01T06:22:51;7.95;;;4.72;;
47365;SDS011;33105;47.964;7.982;2023-06-01T06:25:53;8.75;;;4.68;;
47365;SDS011;33105;47.964;7.982;2023-06-01T06:28:54;8.68;;;5.03;;
47365;SDS011;33105;47.964;7.982;2023-06-01T06:31:56;7.40;;;4.55;;
47365;SDS011;33105;47.964;7.982;2023-06-01T06:34:58;9.95;;;5.30;;
47365;SDS011;33105;47.964;7.982;2023-06-01T06:37:59;13.45;;;5.35;;
47365;SDS011;33105;47.964;7.982;2023-06-01T06:41:00;9.50;;;4.60;;
47365;SDS011;33105;47.964;7.982;2023-06-01T06:44:02;10.00;;;5.10;;
47365;SDS011;33105;47.964;7.982;2023-06-01T06:47:03;12.40;;;5.70;;
47365;SDS011;33105;47.964;7.982;2023-06-01T06:50:05;9.00;;;5.03;;
47365;SDS011;33105;47.964;7.982;2023-06-01T06:53:08;11.82;;;5.80;;
47365;SDS011;33105;47.964;7.982;2023-06-01T06:56:09;7.85;;;5.68;;
47365;SDS011;33105;47.964;7.982;2023-06-01T06:59:11;12.88;;;5.95;;
47365;SDS011;33105;47.964;7.982;2023-06-01T07:02:12;10.27;;;5.50;;
47365;SDS011;33105;47.964;7.982;2023-06-01T07:05:14;8.20;;;5.45;;
47365;SDS011;33105;47.964;7.982;2023-06-01T07:08:15;12.25;;;5.82;;
47365;SDS011;33105;47.964;7.982;2023-06-01T07:11:17;10.45;;;5.75;;
47365;SDS011;33105;47.964;7.982;2023-06-01T07:14:19;10.60;;;5.28;;
47365;SDS011;33105;47.964;7.982;2023-06-01T07:17:20;11.05;;;5.25;;
47365;SDS011;33105;47.964;7.982;2023-06-01T07:20:22;8.45;;;4.68;;
47365;SDS011;33105;47.964;7.982;2023-06-01T07:23:23;10.10;;;5.18;;
47365;SDS011;33105;47.964;7.982;2023-06-01T07:26:24;11.02;;;5.50;;
47365;SDS011;33105;47.964;7.982;2023-06-01T07:29:27;8.68;;;4.75;;
47365;SDS011;33105;47.964;7.982;2023-06-01T07:32:28;13.68;;;4.63;;
47365;SDS011;33105;47.964;7.982;2023-06-01T07:35:30;10.00;;;4.63;;
47365;SDS011;33105;47.964;7.982;2023-06-01T07:38:33;8.50;;;4.60;;
47365;SDS011;33105;47.964;7.982;2023-06-01T07:41:36;14.10;;;4.68;;
47365;SDS011;33105;47.964;7.982;2023-06-01T07:44:37;10.75;;;4.38;;
47365;SDS011;33105;47.964;7.982;2023-06-01T07:47:38;10.50;;;5.03;;
47365;SDS011;33105;47.964;7.982;2023-06-01T07:50:40;9.68;;;4.40;;
47365;SDS011;33105;47.964;7.982;2023-06-01T07:53:42;12.27;;;4.38;;
47365;SDS011;33105;47.964;7.982;2023-06-01T07:56:44;8.88;;;4.25;;
47365;SDS011;33105;47.964;7.982;2023-06-01T07:59:45;16.40;;;4.80;;
47365;SDS011;33105;47.964;7.982;2023-06-01T08:02:46;9.80;;;4.30;;
47365;SDS011;33105;47.964;7.982;2023-06-01T08:05:48;12.00;;;4.30;;
47365;SDS011;33105;47.964;7.982;2023-06-01T08:08:51;15.80;;;4.75;;
47365;SDS011;33105;47.964;7.982;2023-06-01T08:11:52;8.85;;;4.22;;
47365;SDS011;33105;47.964;7.982;2023-06-01T08:14:54;15.55;;;4.93;;
47365;SDS011;33105;47.964;7.982;2023-06-01T08:17:58;13.63;;;5.18;;
47365;SDS011;33105;47.964;7.982;2023-06-01T08:20:59;8.38;;;3.75;;
47365;SDS011;33105;47.964;7.982;2023-06-01T08:24:01;12.25;;;4.13;;
47365;SDS011;33105;47.964;7.982;2023-06-01T08:27:02;11.05;;;4.63;;
47365;SDS011;33105;47.964;7.982;2023-06-01T08:30:16;28.90;;;4.93;;
47365;SDS011;33105;47.964;7.982;2023-06-01T08:33:17;12.68;;;4.53;;
47365;SDS011;33105;47.964;7.982;2023-06-01T08:36:19;12.95;;;5.10;;
47365;SDS011;33105;47.964;7.982;2023-06-01T08:39:21;11.93;;;4.53;;
47365;SDS011;33105;47.964;7.982;2023-06-01T08:42:46;12.65;;;4.30;;
47365;SDS011;33105;47.964;7.982;2023-06-01T08:45:55;11.07;;;4.47;;
47365;SDS011;33105;47.964;7.982;2023-06-01T08:48:58;14.95;;;4.65;;
47365;SDS011;33105;47.964;7.982;2023-06-01T08:52:07;9.95;;;4.10;;
47365;SDS011;33105;47.964;7.982;2023-06-01T08:55:13;12.80;;;4.10;;
47365;SDS011;33105;47.964;7.982;2023-06-01T08:58:15;9.07;;;3.97;;
47365;SDS011;33105;47.964;7.982;2023-06-01T09:01:17;8.18;;;4.32;;
47365;SDS011;33105;47.964;7.982;2023-06-01T09:04:21;11.30;;;3.63;;
47365;SDS011;33105;47.964;7.982;2023-06-01T09:07:23;9.90;;;4.03;;
47365;SDS011;33105;47.964;7.982;2023-06-01T09:10:25;9.82;;;4.25;;
47365;SDS011;33105;47.964;7.982;2023-06-01T09:13:33;5.85;;;3.80;;
47365;SDS011;33105;47.964;7.982;2023-06-01T09:16:35;14.77;;;4.80;;
47365;SDS011;33105;47.964;7.982;2023-06-01T09:19:43;8.40;;;4.00;;
47365;SDS011;33105;47.964;7.982;2023-06-01T09:22:45;8.73;;;3.65;;
47365;SDS011;33105;47.964;7.982;2023-06-01T09:25:47;10.70;;;4.10;;
47365;SDS011;33105;47.964;7.982;2023-06-01T09:29:08;14.88;;;4.40;;
47365;SDS011;33105;47.964;7.982;2023-06-01T09:32:09;12.98;;;3.80;;
47365;SDS011;33105;47.964;7.982;2023-06-01T09:35:40;10.18;;;4.22;;
47365;SDS011;33105;47.964;7.982;2023-06-01T09:38:46;10.50;;;4.47;;
47365;SDS011;33105;47.964;7.982;2023-06-01T09:41:51;11.32;;;4.65;;
47365;SDS011;33105;47.964;7.982;2023-06-01T09:44:56;12.48;;;4.55;;
47365;SDS011;33105;47.964;7.982;2023-06-01T09:48:17;13.55;;;4.28;;
47365;SDS011;33105;47.964;7.982;2023-06-01T09:51:24;7.95;;;4.10;;
47365;SDS011;33105;47.964;7.982;2023-06-01T09:54:31;17.23;;;4.18;;
47365;SDS011;33105;47.964;7.982;2023-06-01T09:58:19;13.35;;;4.47;;
47365;SDS011;33105;47.964;7.982;2023-06-01T10:01:27;10.80;;;4.25;;
47365;SDS011;33105;47.964;7.982;2023-06-01T10:04:30;10.68;;;4.55;;
47365;SDS011;33105;47.964;7.982;2023-06-01T10:07:32;11.77;;;4.20;;
47365;SDS011;33105;47.964;7.982;2023-06-01T10:10:35;14.75;;;4.18;;
47365;SDS011;33105;47.964;7.982;2023-06-01T10:13:37;9.18;;;4.40;;
47365;SDS011;33105;47.964;7.982;2023-06-01T10:16:39;9.73;;;4.30;;
47365;SDS011;33105;47.964;7.982;2023-06-01T10:19:42;9.40;;;3.97;;
47365;SDS011;33105;47.964;7.982;2023-06-01T10:22:44;10.68;;;4.20;;
47365;SDS011;33105;47.964;7.982;2023-06-01T10:25:47;17.00;;;4.00;;
47365;SDS011;33105;47.964;7.982;2023-06-01T10:28:52;9.75;;;3.80;;
47365;SDS011;33105;47.964;7.982;2023-06-01T10:31:55;7.32;;;4.53;;
47365;SDS011;33105;47.964;7.982;2023-06-01T10:34:58;10.05;;;4.22;;
47365;SDS011;33105;47.964;7.982;2023-06-01T10:41:30;11.20;;;3.97;;
47365;SDS011;33105;47.964;7.982;2023-06-01T10:50:41;10.65;;;4.32;;
47365;SDS011;33105;47.964;7.982;2023-06-01T10:53:43;7.93;;;4.40;;
47365;SDS011;33105;47.964;7.982;2023-06-01T10:56:44;7.85;;;3.83;;
47365;SDS011;33105;47.964;7.982;2023-06-01T11:03:17;9.05;;;4.25;;
47365;SDS011;33105;47.964;7.982;2023-06-01T11:06:48;9.93;;;3.88;;
47365;SDS011;33105;47.964;7.982;2023-06-01T11:09:49;13.45;;;4.30;;
47365;SDS011;33105;47.964;7.982;2023-06-01T11:19:26;11.10;;;4.25;;
47365;SDS011;33105;47.964;7.982;2023-06-01T11:22:37;9.20;;;3.72;;
47365;SDS011;33105;47.964;7.982;2023-06-01T11:25:39;6.28;;;4.28;;
47365;SDS011;33105;47.964;7.982;2023-06-01T11:28:43;6.90;;;4.13;;
47365;SDS011;33105;47.964;7.982;2023-06-01T11:31:47;10.48;;;3.78;;
47365;SDS011;33105;47.964;7.982;2023-06-01T11:34:50;8.23;;;3.80;;
47365;SDS011;33105;47.964;7.982;2023-06-01T11:37:53;13.55;;;4.63;;
47365;SDS011;33105;47.964;7.982;2023-06-01T11:40:59;8.43;;;3.85;;
47365;SDS011;33105;47.964;7.982;2023-06-01T11:44:01;9.85;;;4.20;;
47365;SDS011;33105;47.964;7.982;2023-06-01T11:47:02;8.98;;;3.72;;
47365;SDS011;33105;47.964;7.982;2023-06-01T11:50:05;14.15;;;4.18;;
47365;SDS011;33105;47.964;7.982;2023-06-01T11:53:06;8.57;;;4.00;;
47365;SDS011;33105;47.964;7.982;2023-06-01T11:56:08;10.73;;;4.68;;
47365;SDS011;33105;47.964;7.982;2023-06-01T11:59:09;7.38;;;4.30;;
47365;SDS011;33105;47.964;7.982;2023-06-01T12:02:16;11.23;;;4.43;;
47365;SDS011;33105;47.964;7.982;2023-06-01T12:05:37;13.10;;;4.68;;
47365;SDS011;33105;47.964;7.982;2023-06-01T12:08:38;7.30;;;4.30;;
47365;SDS011;33105;47.964;7.982;2023-06-01T12:11:40;9.00;;;4.10;;
47365;SDS011;33105;47.964;7.982;2023-06-01T12:14:43;10.13;;;4.15;;
47365;SDS011;33105;47.964;7.982;2023-06-01T12:20:53;18.10;;;4.47;;
47365;SDS011;33105;47.964;7.982;2023-06-01T12:23:54;11.57;;;4.38;;
47365;SDS011;33105;47.964;7.982;2023-06-01T12:26:56;13.18;;;4.57;;
47365;SDS011;33105;47.964;7.982;2023-06-01T12:29:59;6.50;;;4.22;;
47365;SDS011;33105;47.964;7.982;2023-06-01T12:33:00;6.93;;;4.07;;
47365;SDS011;33105;47.964;7.982;2023-06-01T12:36:03;8.77;;;4.00;;
47365;SDS011;33105;47.964;7.982;2023-06-01T12:39:06;7.20;;;4.20;;
47365;SDS011;33105;47.964;7.982;2023-06-01T12:42:07;15.10;;;3.95;;
47365;SDS011;33105;47.964;7.982;2023-06-01T12:45:11;8.80;;;4.40;;
47365;SDS011;33105;47.964;7.982;2023-06-01T12:48:30;9.57;;;4.10;;
47365;SDS011;33105;47.964;7.982;2023-06-01T12:51:35;5.60;;;3.83;;
47365;SDS011;33105;47.964;7.982;2023-06-01T12:54:37;6.32;;;4.05;;
47365;SDS011;33105;47.964;7.982;2023-06-01T12:57:38;7.70;;;4.00;;
47365;SDS011;33105;47.964;7.982;2023-06-01T13:00:39;9.50;;;4.45;;
47365;SDS011;33105;47.964;7.982;2023-06-01T13:03:40;7.25;;;3.95;;
47365;SDS011;33105;47.964;7.982;2023-06-01T13:06:42;7.03;;;3.70;;
47365;SDS011;33105;47.964;7.982;2023-06-01T13:09:43;7.03;;;3.63;;
47365;SDS011;33105;47.964;7.982;2023-06-01T13:12:44;9.00;;;4.57;;
47365;SDS011;33105;47.964;7.982;2023-06-01T13:15:46;6.70;;;4.43;;
47365;SDS011;33105;47.964;7.982;2023-06-01T13:18:47;6.88;;;4.00;;
47365;SDS011;33105;47.964;7.982;2023-06-01T13:21:51;9.43;;;4.32;;
47365;SDS011;33105;47.964;7.982;2023-06-01T13:24:53;10.07;;;4.20;;
47365;SDS011;33105;47.964;7.982;2023-06-01T13:27:54;10.00;;;4.40;;
47365;SDS011;33105;47.964;7.982;2023-06-01T13:30:55;10.98;;;4.20;;
47365;SDS011;33105;47.964;7.982;2023-06-01T13:33:56;10.75;;;4.22;;
47365;SDS011;33105;47.964;7.982;2023-06-01T13:36:58;8.02;;;4.25;;
47365;SDS011;33105;47.964;7.982;2023-06-01T13:39:59;5.85;;;3.63;;
47365;SDS011;33105;47.964;7.982;2023-06-01T13:43:00;12.73;;;4.35;;
47365;SDS011;33105;47.964;7.982;2023-06-01T13:46:01;8.95;;;4.30;;
47365;SDS011;33105;47.964;7.982;2023-06-01T13:49:02;11.60;;;4.13;;
47365;SDS011;33105;47.964;7.982;2023-06-01T13:52:04;7.05;;;4.15;;
47365;SDS011;33105;47.964;7.982;2023-06-01T13:55:05;14.15;;;4.25;;
47365;SDS011;33105;47.964;7.982;2023-06-01T13:58:07;8.07;;;3.92;;
47365;SDS011;33105;47.964;7.982;2023-06-01T14:01:08;8.35;;;4.43;;
47365;SDS011;33105;47.964;7.982;2023-06-01T14:04:10;6.72;;;4.28;;
47365;SDS011;33105;47.964;7.982;2023-06-01T14:07:11;11.52;;;3.90;;
47365;SDS011;33105;47.964;7.982;2023-06-01T14:10:12;8.05;;;4.18;;
47365;SDS011;33105;47.964;7.982;2023-06-01T14:13:15;7.32;;;3.97;;
47365;SDS011;33105;47.964;7.982;2023-06-01T14:16:16;6.70;;;3.88;;
47365;SDS011;33105;47.964;7.982;2023-06-01T14:19:17;11.43;;;4.60;;
47365;SDS011;33105;47.964;7.982;2023-06-01T14:22:18;8.27;;;3.95;;
47365;SDS011;33105;47.964;7.982;2023-06-01T14:25:20;5.75;;;4.20;;
47365;SDS011;33105;47.964;7.982;2023-06-01T14:28:21;9.70;;;4.22;;
47365;SDS011;33105;47.964;7.982;2023-06-01T14:31:22;6.45;;;3.92;;
47365;SDS011;33105;47.964;7.982;2023-06-01T14:34:23;6.25;;;4.35;;
47365;SDS011;33105;47.964;7.982;2023-06-01T14:37:25;7.47;;;3.80;;
47365;SDS011;33105;47.964;7.982;2023-06-01T14:40:27;6.55;;;4.00;;
47365;SDS011;33105;47.964;7.982;2023-06-01T14:43:28;11.63;;;4.57;;
47365;SDS011;33105;47.964;7.982;2023-06-01T14:46:30;7.90;;;4.28;;
47365;SDS011;33105;47.964;7.982;2023-06-01T14:49:31;9.38;;;4.25;;
47365;SDS011;33105;47.964;7.982;2023-06-01T14:52:33;7.15;;;4.13;;
47365;SDS011;33105;47.964;7.982;2023-06-01T14:55:34;9.55;;;3.78;;
47365;SDS011;33105;47.964;7.982;2023-06-01T14:58:35;11.02;;;3.97;;
47365;SDS011;33105;47.964;7.982;2023-06-01T15:01:36;6.82;;;4.25;;
47365;SDS011;33105;47.964;7.982;2023-06-01T15:04:38;7.00;;;3.90;;
47365;SDS011;33105;47.964;7.982;2023-06-01T15:07:39;10.45;;;4.00;;
47365;SDS011;33105;47.964;7.982;2023-06-01T15:10:40;7.35;;;4.40;;
47365;SDS011;33105;47.964;7.982;2023-06-01T15:13:41;9.07;;;4.28;;
47365;SDS011;33105;47.964;7.982;2023-06-01T15:16:43;14.98;;;6.65;;
47365;SDS011;33105;47.964;7.982;2023-06-01T15:19:44;10.07;;;5.47;;
47365;SDS011;33105;47.964;7.982;2023-06-01T15:22:46;8.20;;;4.72;;
47365;SDS011;33105;47.964;7.982;2023-06-01T15:25:47;8.95;;;3.97;;
47365;SDS011;33105;47.964;7.982;2023-06-01T15:28:48;9.68;;;4.07;;
47365;SDS011;33105;47.964;7.982;2023-06-01T15:31:49;9.55;;;4.25;;
47365;SDS011;33105;47.964;7.982;2023-06-01T15:34:50;11.48;;;4.20;;
47365;SDS011;33105;47.964;7.982;2023-06-01T15:37:52;10.93;;;4.22;;
47365;SDS011;33105;47.964;7.982;2023-06-01T15:40:53;10.93;;;4.85;;
47365;SDS011;33105;47.964;7.982;2023-06-01T15:43:54;9.93;;;4.13;;
47365;SDS011;33105;47.964;7.982;2023-06-01T15:46:55;7.38;;;3.83;;
47365;SDS011;33105;47.964;7.982;2023-06-01T15:49:57;11.35;;;3.97;;
47365;SDS011;33105;47.964;7.982;2023-06-01T15:52:58;7.20;;;4.10;;
47365;SDS011;33105;47.964;7.982;2023-06-01T15:55:59;9.75;;;3.83;;
47365;SDS011;33105;47.964;7.982;2023-06-01T15:59:01;8.50;;;4.32;;
47365;SDS011;33105;47.964;7.982;2023-06-01T16:02:02;8.73;;;6.43;;
47365;SDS011;33105;47.964;7.982;2023-06-01T16:05:03;7.93;;;3.83;;
47365;SDS011;33105;47.964;7.982;2023-06-01T16:08:05;8.75;;;3.78;;
47365;SDS011;33105;47.964;7.982;2023-06-01T16:11:06;9.52;;;4.25;;
47365;SDS011;33105;47.964;7.982;2023-06-01T16:14:07;6.65;;;3.90;;
47365;SDS011;33105;47.964;7.982;2023-06-01T16:17:09;4.70;;;3.65;;
47365;SDS011;33105;47.964;7.982;2023-06-01T16:20:10;9.13;;;4.05;;
47365;SDS011;33105;47.964;7.982;2023-06-01T16:23:12;8.85;;;4.22;;
47365;SDS011;33105;47.964;7.982;2023-06-01T16:26:13;8.70;;;4.43;;
47365;SDS011;33105;47.964;7.982;2023-06-01T16:29:14;12.18;;;4.68;;
47365;SDS011;33105;47.964;7.982;2023-06-01T16:32:15;12.75;;;4.65;;
47365;SDS011;33105;47.964;7.982;2023-06-01T16:35:17;8.55;;;4.30;;
47365;SDS011;33105;47.964;7.982;2023-06-01T16:38:18;10.20;;;4.60;;
47365;SDS011;33105;47.964;7.982;2023-06-01T16:41:19;10.90;;;4.32;;
47365;SDS011;33105;47.964;7.982;2023-06-01T16:44:22;6.20;;;4.20;;
47365;SDS011;33105;47.964;7.982;2023-06-01T16:47:23;10.38;;;4.20;;
47365;SDS011;33105;47.964;7.982;2023-06-01T16:50:24;7.32;;;3.55;;
47365;SDS011;33105;47.964;7.982;2023-06-01T16:53:25;9.27;;;4.20;;
47365;SDS011;33105;47.964;7.982;2023-06-01T16:56:26;7.40;;;3.85;;
47365;SDS011;33105;47.964;7.982;2023-06-01T16:59:28;7.28;;;4.13;;
47365;SDS011;33105;47.964;7.982;2023-06-01T17:02:29;7.30;;;4.20;;
47365;SDS011;33105;47.964;7.982;2023-06-01T17:05:31;6.78;;;3.80;;
47365;SDS011;33105;47.964;7.982;2023-06-01T17:08:34;12.65;;;4.15;;
47365;SDS011;33105;47.964;7.982;2023-06-01T17:11:36;12.55;;;4.93;;
47365;SDS011;33105;47.964;7.982;2023-06-01T17:14:37;7.45;;;3.67;;
47365;SDS011;33105;47.964;7.982;2023-06-01T17:17:38;9.00;;;3.90;;
47365;SDS011;33105;47.964;7.982;2023-06-01T17:20:39;8.52;;;3.88;;
47365;SDS011;33105;47.964;7.982;2023-06-01T17:23:41;11.95;;;3.88;;
47365;SDS011;33105;47.964;7.982;2023-06-01T17:26:42;6.38;;;3.63;;
47365;SDS011;33105;47.964;7.982;2023-06-01T17:29:43;7.65;;;3.15;;
47365;SDS011;33105;47.964;7.982;2023-06-01T17:32:44;9.82;;;3.65;;
47365;SDS011;33105;47.964;7.982;2023-06-01T17:35:46;7.80;;;3.47;;
47365;SDS011;33105;47.964;7.982;2023-06-01T17:38:47;10.45;;;3.22;;
47365;SDS011;33105;47.964;7.982;2023-06-01T17:41:49;7.00;;;3.40;;
47365;SDS011;33105;47.964;7.982;2023-06-01T17:44:51;6.10;;;3.30;;
47365;SDS011;33105;47.964;7.982;2023-06-01T17:47:52;7.75;;;3.35;;
47365;SDS011;33105;47.964;7.982;2023-06-01T17:50:53;5.90;;;3.28;;
47365;SDS011;33105;47.964;7.982;2023-06-01T17:53:55;8.55;;;3.28;;
47365;SDS011;33105;47.964;7.982;2023-06-01T17:56:56;7.80;;;3.30;;
47365;SDS011;33105;47.964;7.982;2023-06-01T17:59:57;8.27;;;3.40;;
47365;SDS011;33105;47.964;7.982;2023-06-01T18:02:58;8.20;;;3.50;;
47365;SDS011;33105;47.964;7.982;2023-06-01T18:05:59;8.50;;;4.20;;
47365;SDS011;33105;47.964;7.982;2023-06-01T18:09:01;6.43;;;3.40;;
47365;SDS011;33105;47.964;7.982;2023-06-01T18:12:02;6.25;;;3.10;;
47365;SDS011;33105;47.964;7.982;2023-06-01T18:15:03;5.57;;;3.10;;
47365;SDS011;33105;47.964;7.982;2023-06-01T18:18:05;5.80;;;3.35;;
47365;SDS011;33105;47.964;7.982;2023-06-01T18:21:06;11.32;;;3.60;;
47365;SDS011;33105;47.964;7.982;2023-06-01T18:24:07;6.43;;;3.10;;
47365;SDS011;33105;47.964;7.982;2023-06-01T18:27:08;14.15;;;3.40;;
47365;SDS011;33105;47.964;7.982;2023-06-01T18:30:10;6.90;;;2.90;;
47365;SDS011;33105;47.964;7.982;2023-06-01T18:33:12;5.90;;;3.40;;
47365;SDS011;33105;47.964;7.982;2023-06-01T18:36:13;8.60;;;3.40;;
47365;SDS011;33105;47.964;7.982;2023-06-01T18:39:15;5.65;;;3.50;;
47365;SDS011;33105;47.964;7.982;2023-06-01T18:42:17;7.47;;;3.63;;
47365;SDS011;33105;47.964;7.982;2023-06-01T18:45:18;9.73;;;3.25;;
47365;SDS011;33105;47.964;7.982;2023-06-01T18:48:20;5.28;;;3.65;;
47365;SDS011;33105;47.964;7.982;2023-06-01T18:51:24;8.43;;;3.30;;
47365;SDS011;33105;47.964;7.982;2023-06-01T18:54:25;7.78;;;3.67;;